Kirksville Regional Airport
KIRK : now visible

Airfield :











YOU CAN JOIN US ON...

 
LOGIN :

Register | Disclaimer

   EN    FR    IT 

 









Legend :    VFR   Marginal VFR   IFR   Intensive IFR   Very Intensive IFR
Visi :
Ceiling :
>= 8 km
>= 3000ft
5 to 8 km
1000 to 3000 ft
1500m to 5 km
500 to 1000 ft
800 to 1500m
200 to 500 ft
< 800m
< 200 ft
Symbols :   Thunderstorms  Fog  Heavy snow  Heavy precipitations  Wind > 20 kt






- Airport Elevation : 966 ft
- IATA code : IRK


KIRK - Kirksville Regional

CURRENT METAR :
  • 301955Z AUTO 22011G19KT 10SM CLR 31/14 A2997 RMK AO2 SLP145 T03060144

EXPIRED METARs :
  • 301855Z AUTO 21013KT 10SM CLR 29/14 A3000 RMK AO2 PK WND 23026/1821 SLP154 T02940144
  • 301755Z AUTO 20012G22KT 10SM CLR 29/15 A3001 RMK AO2 SLP157 T02940150 10294 20200 58020
  • 301655Z AUTO 23013G22KT 10SM CLR 28/16 A3004 RMK AO2 SLP166 T02830156

TAF N/A
KZKC FIR / North America



MET'MAP, your aeronautical weather chart ! - Copyright ORBIFLY December 2007 - Disclaimer

ORBIFLY MET'MAP TEAM :

Programming & Development : Alexandra Zaïnal
Original concept : Baudouin d'Aumeries
Technical & hardware support : Manuel Goepfert
Assistance : Marc-Olivier Méhu




SOURCES & CREDITS :

   NOAA       Earth
Advisory